Terminal Aerodrome Forecast
Issued by NWS Wilmington, OH

Current Version | Previous Version | Graphics & Text | Print | Product List | Glossary On
Versions: 1 2 3 4 5 6 7 8 9 10 11 12 13 14 15 16 17 18 19 20 21
571
FTUS41 KILN 231120
TAFILN
TAF
KILN 231120Z 2312/2412 24006KT P6SM VCSH OVC012
     FM231400 24006KT P6SM BKN019
     FM231700 24006KT P6SM BKN025
     FM232000 23006KT P6SM -SHRA VCTS BKN035CB
      TEMPO 2321/2323 4SM -TSRA BKN025CB
     FM232300 27006KT P6SM VCSH BKN035
     FM240300 26003KT P6SM SCT035
     FM240800 00000KT 4SM BR FEW035
     FM241000 00000KT 2SM BR FEW035=

USA.gov is the U.S. government's official web portal to all federal, state and local government web resources and services.